createdAt,value
2019-01-19T00:00:23.791Z,1009.6
2019-01-19T00:01:12.500Z,1009.58
2019-01-19T00:02:01.013Z,1009.57
2019-01-19T00:02:49.556Z,1009.59
2019-01-19T00:03:38.205Z,1009.53
2019-01-19T00:04:26.588Z,1009.45
2019-01-19T00:05:15.413Z,1009.5
2019-01-19T00:06:03.925Z,1009.51
2019-01-19T00:06:52.751Z,1009.49
2019-01-19T00:07:41.206Z,1009.46
2019-01-19T00:08:29.482Z,1009.52
2019-01-19T00:09:17.860Z,1009.48
2019-01-19T00:10:06.425Z,1009.49
2019-01-19T00:10:55.235Z,1009.47
2019-01-19T00:11:43.760Z,1009.46
2019-01-19T00:12:32.076Z,1009.46
2019-01-19T00:13:21.302Z,1009.49
2019-01-19T00:14:09.374Z,1009.47
2019-01-19T00:14:58.010Z,1009.46
2019-01-19T00:15:46.480Z,1009.44
2019-01-19T00:16:35.164Z,1009.47
2019-01-19T00:17:24.110Z,1009.45
2019-01-19T00:18:12.689Z,1009.46
2019-01-19T00:19:00.719Z,1009.42
2019-01-19T00:19:49.215Z,1009.41
2019-01-19T00:20:37.878Z,1009.41
2019-01-19T00:21:26.455Z,1009.45
2019-01-19T00:22:15.082Z,1009.41
2019-01-19T00:23:05.487Z,1009.37
2019-01-19T00:23:53.859Z,1009.39
2019-01-19T00:26:16.395Z,1009.4
2019-01-19T00:27:04.772Z,1009.38
2019-01-19T00:27:53.856Z,1009.37
2019-01-19T00:28:42.083Z,1009.35
2019-01-19T00:29:30.583Z,1009.37
2019-01-19T00:30:19.021Z,1009.36
2019-01-19T00:31:07.681Z,1009.35
2019-01-19T00:31:56.432Z,1009.32
2019-01-19T00:32:44.943Z,1009.32
2019-01-19T00:33:33.888Z,1009.3
2019-01-19T00:34:22.193Z,1009.26
2019-01-19T00:35:17.582Z,1009.28
2019-01-19T00:35:59.841Z,1009.28
2019-01-19T00:36:48.312Z,1009.25
2019-01-19T00:37:36.559Z,1009.29
2019-01-19T00:38:25.120Z,1009.32
2019-01-19T00:39:13.611Z,1009.28
2019-01-19T00:40:02.621Z,1009.26
2019-01-19T00:40:50.889Z,1009.27
2019-01-19T00:41:39.659Z,1009.29
2019-01-19T00:42:28.054Z,1009.28
2019-01-19T00:43:16.987Z,1009.29
2019-01-19T00:44:05.320Z,1009.29
2019-01-19T00:44:54.013Z,1009.29
2019-01-19T00:45:42.982Z,1009.26
2019-01-19T00:46:31.149Z,1009.3
2019-01-19T00:47:19.674Z,1009.26
2019-01-19T00:48:08.480Z,1009.28
2019-01-19T00:48:57.297Z,1009.24
2019-01-19T00:49:45.597Z,1009.23
2019-01-19T00:50:34.377Z,1009.26
2019-01-19T00:51:22.887Z,1009.26
2019-01-19T00:52:13.896Z,1009.25
2019-01-19T00:53:02.006Z,1009.26
2019-01-19T00:53:50.698Z,1009.25
2019-01-19T00:54:39.628Z,1009.29
2019-01-19T00:55:27.929Z,1009.31
2019-01-19T00:56:16.770Z,1009.31
2019-01-19T00:57:07.067Z,1009.25
2019-01-19T00:57:57.001Z,1009.31
2019-01-19T00:58:45.795Z,1009.27
2019-01-19T00:59:35.959Z,1009.28
2019-01-19T01:00:24.230Z,1009.3
2019-01-19T01:01:13.019Z,1009.25
2019-01-19T01:02:03.909Z,1009.25
2019-01-19T01:02:52.408Z,1009.26
2019-01-19T01:03:41.399Z,1009.23
2019-01-19T01:06:04.270Z,1009.22
2019-01-19T01:08:29.256Z,1009.2
2019-01-19T01:09:19.910Z,1009.24
2019-01-19T01:10:08.060Z,1009.21
2019-01-19T01:10:56.814Z,1009.21
2019-01-19T01:11:45.784Z,1009.16
2019-01-19T01:12:33.885Z,1009.23
2019-01-19T01:13:22.504Z,1009.23
2019-01-19T01:14:11.214Z,1009.25
2019-01-19T01:14:59.769Z,1009.21
2019-01-19T01:15:48.218Z,1009.19
2019-01-19T01:16:37.175Z,1009.18
2019-01-19T01:17:25.665Z,1009.24
2019-01-19T01:18:14.274Z,1009.18
2019-01-19T01:19:02.737Z,1009.23
2019-01-19T01:19:51.984Z,1009.17
2019-01-19T01:22:14.763Z,1009.23
2019-01-19T01:23:03.571Z,1009.18
2019-01-19T01:23:52.124Z,1009.18
2019-01-19T01:24:40.765Z,1009.2
2019-01-19T01:25:29.221Z,1009.17
2019-01-19T01:26:18.249Z,1009.17
2019-01-19T01:27:06.370Z,1009.18
2019-01-19T01:27:54.954Z,1009.19
2019-01-19T01:28:43.922Z,1009.17
2019-01-19T01:29:34.780Z,1009.2
2019-01-19T01:30:24.940Z,1009.18
2019-01-19T01:31:13.636Z,1009.17
2019-01-19T01:32:02.278Z,1009.16
2019-01-19T01:32:50.680Z,1009.18
2019-01-19T01:33:41.309Z,1009.18
2019-01-19T01:34:31.732Z,1009.2
2019-01-19T01:35:20.298Z,1009.22
2019-01-19T01:36:10.813Z,1009.15
2019-01-19T01:36:59.340Z,1009.21
2019-01-19T01:37:47.927Z,1009.19
2019-01-19T01:38:39.717Z,1009.18
2019-01-19T01:39:29.945Z,1009.15
2019-01-19T01:40:18.530Z,1009.15
2019-01-19T01:41:07.463Z,1009.16
2019-01-19T01:41:56.226Z,1009.15
2019-01-19T01:42:44.747Z,1009.12
2019-01-19T01:43:33.254Z,1009.1
2019-01-19T01:44:21.492Z,1009.16
2019-01-19T01:45:11.761Z,1009.14
2019-01-19T01:46:00.315Z,1009.15
2019-01-19T01:46:49.196Z,1009.11
2019-01-19T01:47:37.812Z,1009.1
2019-01-19T01:48:25.927Z,1009.12
2019-01-19T01:49:14.377Z,1009.12
2019-01-19T01:50:02.856Z,1009.16
2019-01-19T01:50:51.554Z,1009.15
2019-01-19T01:51:40.387Z,1009.13
2019-01-19T01:52:29.210Z,1009.12
2019-01-19T01:53:17.360Z,1009.11
2019-01-19T01:54:05.937Z,1009.09
2019-01-19T01:54:54.754Z,1009.13
2019-01-19T01:55:43.718Z,1009.11
2019-01-19T01:56:32.042Z,1009.13
2019-01-19T01:57:20.773Z,1009.12
2019-01-19T01:58:10.961Z,1009.08
2019-01-19T01:58:59.759Z,1009.08
2019-01-19T01:59:48.338Z,1009.09
2019-01-19T02:00:36.795Z,1009.13
2019-01-19T02:01:26.856Z,1009.12
2019-01-19T02:02:15.409Z,1009.09
2019-01-19T02:03:04.170Z,1009.06
2019-01-19T02:03:52.570Z,1009.09
2019-01-19T02:04:41.646Z,1009.02
2019-01-19T02:05:31.771Z,1009.09
2019-01-19T02:06:20.316Z,1009.08
2019-01-19T02:07:09.088Z,1009.06
2019-01-19T02:07:57.660Z,1009.06
2019-01-19T02:08:46.163Z,1009.07
2019-01-19T02:09:34.680Z,1009.06
2019-01-19T02:10:22.983Z,1009.04
2019-01-19T02:11:11.437Z,1009.04
2019-01-19T02:12:00.055Z,1009.07
2019-01-19T02:12:49.289Z,1009.06
2019-01-19T02:13:37.800Z,1009.05
2019-01-19T02:14:27.855Z,1009.04
2019-01-19T02:15:16.539Z,1009.03
2019-01-19T02:16:05.295Z,1009.05
2019-01-19T02:16:53.790Z,1008.98
2019-01-19T02:17:46.052Z,1009
2019-01-19T02:18:34.782Z,1009
2019-01-19T02:19:24.864Z,1009.02
2019-01-19T02:20:13.425Z,1008.95
2019-01-19T02:21:02.427Z,1008.97
2019-01-19T02:21:50.552Z,1008.96
2019-01-19T02:22:41.000Z,1008.97
2019-01-19T02:23:31.806Z,1008.93
2019-01-19T02:24:20.313Z,1008.91
2019-01-19T02:25:08.392Z,1008.93
2019-01-19T02:25:57.125Z,1008.94
2019-01-19T02:26:45.881Z,1008.93
2019-01-19T02:27:34.179Z,1008.92
2019-01-19T02:28:24.786Z,1008.95
2019-01-19T02:33:01.933Z,1008.9
2019-01-19T02:33:50.307Z,1008.91
2019-01-19T02:34:39.319Z,1008.91
2019-01-19T02:35:27.750Z,1008.89
2019-01-19T02:36:16.638Z,1008.92
2019-01-19T02:37:05.153Z,1008.87
2019-01-19T02:37:53.244Z,1008.85
2019-01-19T02:38:42.129Z,1008.86
2019-01-19T02:39:32.301Z,1008.85
2019-01-19T02:40:20.919Z,1008.84
2019-01-19T02:41:09.570Z,1008.83
2019-01-19T02:41:58.299Z,1008.8
2019-01-19T02:42:46.515Z,1008.83
2019-01-19T02:43:35.370Z,1008.8
2019-01-19T02:44:23.570Z,1008.81
2019-01-19T02:45:12.728Z,1008.79
2019-01-19T02:46:00.857Z,1008.74
2019-01-19T02:46:49.418Z,1008.73
2019-01-19T02:47:37.937Z,1008.7
2019-01-19T02:48:26.423Z,1008.73
2019-01-19T02:49:15.213Z,1008.69
2019-01-19T02:50:04.175Z,1008.69
2019-01-19T02:50:52.230Z,1008.68
2019-01-19T02:51:40.945Z,1008.65
2019-01-19T02:52:29.426Z,1008.69
2019-01-19T02:53:18.247Z,1008.61
2019-01-19T02:54:06.629Z,1008.56
2019-01-19T02:54:55.725Z,1008.54
2019-01-19T02:55:43.976Z,1008.56
2019-01-19T02:56:32.858Z,1008.54
2019-01-19T02:57:21.153Z,1008.5
2019-01-19T02:58:09.849Z,1008.55
2019-01-19T02:58:58.342Z,1008.53
2019-01-19T02:59:47.189Z,1008.53
2019-01-19T03:00:35.727Z,1008.51
2019-01-19T03:01:24.381Z,1008.5
2019-01-19T03:02:12.866Z,1008.49
2019-01-19T03:03:02.138Z,1008.51
2019-01-19T03:03:50.420Z,1008.48
2019-01-19T03:04:38.883Z,1008.49
2019-01-19T03:08:27.896Z,1008.45
2019-01-19T03:09:16.275Z,1008.42
2019-01-19T03:10:04.642Z,1008.39
2019-01-19T03:10:53.488Z,1008.4
2019-01-19T03:11:41.997Z,1008.45
2019-01-19T03:12:30.837Z,1008.42
2019-01-19T03:13:19.577Z,1008.42
2019-01-19T03:14:07.704Z,1008.41
2019-01-19T03:14:56.907Z,1008.41
2019-01-19T03:15:45.282Z,1008.39
2019-01-19T03:16:34.019Z,1008.38
2019-01-19T03:17:22.627Z,1008.36
2019-01-19T03:21:57.689Z,1008.35
2019-01-19T03:22:46.718Z,1008.38
2019-01-19T03:23:34.903Z,1008.4
2019-01-19T03:24:23.481Z,1008.42
2019-01-19T03:25:12.482Z,1008.41
2019-01-19T03:26:00.522Z,1008.4
2019-01-19T03:26:49.290Z,1008.36
2019-01-19T03:27:39.327Z,1008.39
2019-01-19T03:28:27.624Z,1008.36
2019-01-19T03:29:16.631Z,1008.32
2019-01-19T03:30:05.129Z,1008.34
2019-01-19T03:30:53.439Z,1008.35
2019-01-19T03:31:42.390Z,1008.33
2019-01-19T03:32:30.609Z,1008.37
2019-01-19T03:33:19.310Z,1008.33
2019-01-19T03:34:07.935Z,1008.31
2019-01-19T03:34:56.469Z,1008.33
2019-01-19T03:35:45.918Z,1008.35
2019-01-19T03:36:34.813Z,1008.32
2019-01-19T03:37:29.070Z,1008.27
2019-01-19T03:38:17.987Z,1008.26
2019-01-19T03:39:06.927Z,1008.24
2019-01-19T03:39:55.542Z,1008.27
2019-01-19T03:52:06.826Z,1008.25
2019-01-19T03:52:55.441Z,1008.27
2019-01-19T03:53:44.695Z,1008.22
2019-01-19T03:54:32.841Z,1008.2
2019-01-19T03:55:21.470Z,1008.19
2019-01-19T03:56:10.139Z,1008.2
2019-01-19T03:56:59.224Z,1008.17
2019-01-19T03:57:47.348Z,1008.2
2019-01-19T04:04:39.129Z,1008.12
2019-01-19T04:05:27.706Z,1008.19
2019-01-19T04:06:16.403Z,1008.16
2019-01-19T04:07:05.453Z,1008.15
2019-01-19T04:07:53.506Z,1008.13
2019-01-19T04:08:42.079Z,1008.1
2019-01-19T04:09:30.710Z,1008.13
2019-01-19T04:10:19.180Z,1008.14
2019-01-19T04:11:10.033Z,1008.14
2019-01-19T04:11:58.874Z,1008.15
2019-01-19T04:12:47.033Z,1008.13
2019-01-19T04:13:35.629Z,1008.14
2019-01-19T04:18:11.803Z,1008.19
2019-01-19T04:19:00.455Z,1008.15
2019-01-19T04:19:48.843Z,1008.14
2019-01-19T04:20:37.649Z,1008.15
2019-01-19T04:21:26.288Z,1008.12
2019-01-19T04:22:14.789Z,1008.14
2019-01-19T04:23:03.789Z,1008.16
2019-01-19T04:23:51.886Z,1008.14
2019-01-19T04:24:40.989Z,1008.19
2019-01-19T04:25:29.219Z,1008.17
2019-01-19T04:26:17.993Z,1008.14
2019-01-19T04:27:06.361Z,1008.16
2019-01-19T04:27:55.087Z,1008.17
2019-01-19T05:21:39.563Z,1007.72
2019-01-19T05:22:29.485Z,1007.8
2019-01-19T05:36:53.491Z,1007.8
2019-01-19T05:37:42.859Z,1007.82
2019-01-19T06:08:30.516Z,1007.8
2019-01-19T06:17:37.186Z,1007.78
2019-01-19T06:18:25.525Z,1007.8
2019-01-19T06:19:14.308Z,1007.8
2019-01-19T06:21:43.339Z,1007.72
2019-01-19T06:22:32.290Z,1007.75
2019-01-19T06:23:21.824Z,1007.68
2019-01-19T06:25:35.243Z,1007.61
2019-01-19T06:52:27.295Z,1007.58
2019-01-19T06:58:53.808Z,1007.51
2019-01-19T07:07:22.346Z,1007.56
2019-01-19T07:10:50.892Z,1007.57
2019-01-19T07:11:39.508Z,1007.61
2019-01-19T07:12:29.294Z,1007.59
2019-01-19T07:14:51.703Z,1007.62
2019-01-19T07:17:37.762Z,1007.65
2019-01-19T07:18:28.415Z,1007.61
2019-01-19T07:19:07.638Z,1007.61
2019-01-19T07:19:49.702Z,1007.6
2019-01-19T07:20:31.030Z,1007.61
2019-01-19T07:21:10.617Z,1007.58
2019-01-19T07:21:51.027Z,1007.64
2019-01-19T07:22:50.268Z,1007.62
2019-01-19T07:23:33.696Z,1007.63
2019-01-19T07:25:58.268Z,1007.6
2019-01-19T07:28:32.984Z,1007.55
2019-01-19T07:31:16.383Z,1007.59
2019-01-19T07:32:01.851Z,1007.57
2019-01-19T07:32:51.969Z,1007.55
2019-01-19T07:33:34.153Z,1007.53
2019-01-19T07:34:16.282Z,1007.57
2019-01-19T07:40:00.091Z,1007.58
2019-01-19T07:40:47.526Z,1007.62
2019-01-19T08:28:11.642Z,1007.9
2019-01-19T09:54:18.861Z,1007.72
2019-01-19T09:55:02.033Z,1007.67
2019-01-19T10:01:55.525Z,1007.64
2019-01-19T10:08:15.215Z,1007.5
2019-01-19T10:09:34.517Z,1007.64
2019-01-19T10:10:20.490Z,1007.48
2019-01-19T10:11:06.019Z,1007.53
2019-01-19T10:11:46.406Z,1007.56
2019-01-19T10:12:28.543Z,1007.55
2019-01-19T10:13:14.703Z,1007.44
2019-01-19T10:13:58.995Z,1007.46
2019-01-19T10:14:41.996Z,1007.45
2019-01-19T10:15:23.879Z,1007.49
2019-01-19T10:16:05.980Z,1007.41
2019-01-19T10:16:50.318Z,1007.39
2019-01-19T10:17:38.985Z,1007.41
2019-01-19T10:18:21.228Z,1007.24
2019-01-19T10:19:02.635Z,1007.34
2019-01-19T10:19:44.719Z,1007.37
2019-01-19T10:20:29.437Z,1007.35
2019-01-19T10:21:31.129Z,1007.32
2019-01-19T10:22:18.859Z,1007.29
2019-01-19T10:23:00.999Z,1007.32
2019-01-19T10:23:42.277Z,1007.33
2019-01-19T10:24:25.647Z,1007.31
2019-01-19T10:25:23.323Z,1007.32
2019-01-19T10:26:11.232Z,1007.29
2019-01-19T10:26:55.581Z,1007.33
2019-01-19T10:27:49.947Z,1007.3
2019-01-19T10:28:46.262Z,1007.25
2019-01-19T10:29:33.583Z,1007.24
2019-01-19T11:09:15.327Z,1006.97
2019-01-19T11:10:19.989Z,1006.93
2019-01-19T11:11:06.140Z,1006.96
2019-01-19T11:11:50.386Z,1006.93
2019-01-19T11:12:39.093Z,1006.91
2019-01-19T11:13:22.470Z,1006.82
2019-01-19T11:14:10.770Z,1006.79
2019-01-19T11:15:11.313Z,1006.77
2019-01-19T11:15:57.502Z,1006.78
2019-01-19T11:18:56.599Z,1006.75
2019-01-19T11:33:17.407Z,1006.65
2019-01-19T11:34:08.700Z,1006.65
2019-01-19T11:34:53.408Z,1006.61
2019-01-19T11:35:52.983Z,1006.52
2019-01-19T11:36:42.798Z,1006.53
2019-01-19T11:37:46.009Z,1006.51
2019-01-19T11:38:29.150Z,1006.48
2019-01-19T11:39:34.627Z,1006.49
2019-01-19T11:40:26.561Z,1006.54
2019-01-19T11:41:10.049Z,1006.49
2019-01-19T11:41:58.130Z,1006.48
2019-01-19T11:42:40.624Z,1006.45
2019-01-19T11:43:30.900Z,1006.45
2019-01-19T11:44:20.146Z,1006.49
2019-01-19T11:45:04.190Z,1006.43
2019-01-19T11:49:17.823Z,1006.41
2019-01-19T11:50:11.994Z,1006.43
2019-01-19T11:50:56.775Z,1006.4
2019-01-19T11:51:42.666Z,1006.35
2019-01-19T11:52:28.683Z,1006.39
2019-01-19T11:53:25.660Z,1006.36
2019-01-19T12:06:19.260Z,1006.18
2019-01-19T12:12:18.509Z,1006.12
2019-01-19T12:12:57.687Z,1006.08
2019-01-19T12:13:37.936Z,1006.13
2019-01-19T12:14:20.431Z,1006.14
2019-01-19T12:15:10.414Z,1006.12
2019-01-19T12:15:55.495Z,1006.1
2019-01-19T12:19:23.691Z,1005.99
2019-01-19T12:20:12.441Z,1005.96
2019-01-19T12:21:05.377Z,1005.96
2019-01-19T12:21:52.533Z,1005.96
2019-01-19T12:22:44.781Z,1005.99
2019-01-19T12:23:26.850Z,1005.91
2019-01-19T12:24:17.681Z,1005.91
2019-01-19T12:25:04.618Z,1005.87
2019-01-19T12:25:45.029Z,1005.89
2019-01-19T12:26:31.188Z,1005.92
2019-01-19T12:27:13.247Z,1005.84
2019-01-19T12:27:53.652Z,1006.03
2019-01-19T12:28:38.988Z,1005.87
2019-01-19T12:29:22.672Z,1005.89
2019-01-19T12:30:22.926Z,1005.88
2019-01-19T12:36:37.041Z,1005.93
2019-01-19T12:37:19.762Z,1005.93
2019-01-19T12:38:03.436Z,1005.8
2019-01-19T12:38:46.497Z,1005.86
2019-01-19T12:39:45.633Z,1005.86
2019-01-19T12:40:28.239Z,1005.78
2019-01-19T12:41:18.914Z,1005.77
2019-01-19T12:42:04.157Z,1005.86
2019-01-19T12:47:33.665Z,1005.7
2019-01-19T12:48:14.527Z,1005.67
2019-01-19T12:52:31.890Z,1005.67
2019-01-19T12:54:09.408Z,1005.54
2019-01-19T12:54:56.061Z,1005.6
2019-01-19T12:55:36.316Z,1005.61
2019-01-19T12:56:21.942Z,1005.53
2019-01-19T12:57:12.532Z,1005.52
2019-01-19T12:57:59.243Z,1005.51
2019-01-19T12:58:42.519Z,1005.5
2019-01-19T12:59:30.231Z,1005.41
2019-01-19T13:00:22.741Z,1005.51
2019-01-19T13:01:16.282Z,1005.45
2019-01-19T13:02:02.969Z,1005.4
2019-01-19T13:02:49.734Z,1005.39
2019-01-19T13:03:51.632Z,1005.54
2019-01-19T13:04:34.931Z,1005.38
2019-01-19T13:05:21.239Z,1005.45
2019-01-19T13:06:06.273Z,1005.4
2019-01-19T13:06:52.293Z,1005.44
2019-01-19T13:07:42.250Z,1005.4
2019-01-19T13:08:34.284Z,1005.34
2019-01-19T13:09:15.812Z,1005.47
2019-01-19T13:10:01.216Z,1005.36
2019-01-19T13:10:46.302Z,1005.35
2019-01-19T13:11:38.950Z,1005.43
2019-01-19T13:12:25.778Z,1005.39
2019-01-19T13:13:09.781Z,1005.32
2019-01-19T13:13:55.297Z,1005.28
2019-01-19T13:14:41.591Z,1005.28
2019-01-19T13:15:31.825Z,1005.27
2019-01-19T13:16:19.763Z,1005.26
2019-01-19T13:17:02.530Z,1005.24
2019-01-19T13:17:49.268Z,1005.25
2019-01-19T13:18:37.697Z,1005.2
2019-01-19T13:19:27.581Z,1005.26
2019-01-19T13:20:19.025Z,1005.31
2019-01-19T13:21:01.269Z,1005.25
2019-01-19T13:21:53.377Z,1005.18
2019-01-19T13:22:35.891Z,1005.2
2019-01-19T13:23:19.183Z,1005.35
2019-01-19T13:24:20.363Z,1005.28
2019-01-19T13:29:15.487Z,1005.18
2019-01-19T13:30:02.546Z,1005.14
2019-01-19T13:40:00.846Z,1005.1
2019-01-19T13:41:36.792Z,1005.1
2019-01-19T13:42:26.865Z,1005.08
2019-01-19T13:43:15.440Z,1005.09
2019-01-19T13:47:07.898Z,1005.11
2019-01-19T13:47:58.864Z,1005.07
2019-01-19T13:48:42.859Z,1005.13
2019-01-19T13:49:40.743Z,1005.08
2019-01-19T13:50:39.530Z,1005.07
2019-01-19T13:51:34.081Z,1005.11
2019-01-19T13:52:17.376Z,1005.04
2019-01-19T13:53:05.921Z,1005.08
2019-01-19T13:54:01.664Z,1005
2019-01-19T13:54:49.775Z,1005.02
2019-01-19T13:57:23.533Z,1005.05
2019-01-19T13:58:09.367Z,1005.04
2019-01-19T14:03:38.454Z,1005.02
2019-01-19T14:12:33.758Z,1004.93
2019-01-19T14:13:20.277Z,1004.91
2019-01-19T14:16:10.218Z,1004.95
2019-01-19T14:28:09.028Z,1004.85
2019-01-19T14:30:22.869Z,1004.8
2019-01-19T14:32:21.460Z,1004.8
2019-01-19T14:33:23.821Z,1004.79
2019-01-19T14:34:24.908Z,1004.81
2019-01-19T14:35:16.752Z,1004.78
2019-01-19T14:38:00.718Z,1004.71
2019-01-19T14:38:57.099Z,1004.74
2019-01-19T14:39:49.988Z,1004.76
2019-01-19T14:40:43.271Z,1004.73
2019-01-19T14:41:36.558Z,1004.71
2019-01-19T14:42:31.883Z,1004.72
2019-01-19T14:43:26.686Z,1004.61
2019-01-19T14:44:22.184Z,1004.65
2019-01-19T14:45:16.065Z,1004.64
2019-01-19T14:46:10.106Z,1004.65
2019-01-19T14:47:01.992Z,1004.58
2019-01-19T14:47:57.513Z,1004.66
2019-01-19T14:48:53.016Z,1004.64
2019-01-19T14:49:45.349Z,1004.61
2019-01-19T14:50:41.335Z,1004.62
2019-01-19T14:51:34.470Z,1004.57
2019-01-19T14:52:27.392Z,1004.64
2019-01-19T14:53:21.478Z,1004.59
2019-01-19T14:54:13.855Z,1004.52
2019-01-19T14:55:08.584Z,1004.53
2019-01-19T14:56:01.918Z,1004.5
2019-01-19T14:57:10.979Z,1004.4
2019-01-19T14:58:04.175Z,1004.49
2019-01-19T14:58:55.954Z,1004.51
2019-01-19T14:59:49.365Z,1004.53
2019-01-19T15:00:42.742Z,1004.46
2019-01-19T15:01:37.615Z,1004.52
2019-01-19T15:02:45.914Z,1004.53
2019-01-19T15:03:41.055Z,1004.47
2019-01-19T15:16:44.924Z,1004.48
2019-01-19T15:22:37.711Z,1004.51
2019-01-19T15:36:12.298Z,1004.46
2019-01-19T15:37:04.844Z,1004.48
2019-01-19T15:37:57.077Z,1004.46
2019-01-19T15:38:51.428Z,1004.47
2019-01-19T15:39:43.727Z,1004.49
2019-01-19T15:40:41.291Z,1004.5
2019-01-19T15:41:33.623Z,1004.49
2019-01-19T15:42:27.153Z,1004.5
2019-01-19T15:43:22.087Z,1004.51
2019-01-19T15:44:15.128Z,1004.48
2019-01-19T15:45:09.174Z,1004.47
2019-01-19T15:46:01.618Z,1004.5
2019-01-19T15:46:56.190Z,1004.49
2019-01-19T15:47:49.671Z,1004.44
2019-01-19T15:48:42.184Z,1004.46
2019-01-19T15:49:34.606Z,1004.43
2019-01-19T15:50:27.248Z,1004.44
2019-01-19T15:51:19.864Z,1004.43
2019-01-19T15:52:12.404Z,1004.44
2019-01-19T15:53:04.570Z,1004.44
2019-01-19T15:53:58.120Z,1004.49
2019-01-19T15:54:51.633Z,1004.44
2019-01-19T15:55:46.665Z,1004.39
2019-01-19T15:56:39.230Z,1004.43
2019-01-19T15:57:33.058Z,1004.4
2019-01-19T15:58:24.997Z,1004.39
2019-01-19T15:59:17.222Z,1004.39
2019-01-19T16:00:10.675Z,1004.35
2019-01-19T16:01:04.052Z,1004.42
2019-01-19T16:01:57.515Z,1004.4
2019-01-19T16:02:52.177Z,1004.35
2019-01-19T16:03:45.039Z,1004.4
2019-01-19T16:04:39.141Z,1004.36
2019-01-19T16:05:31.641Z,1004.37
2019-01-19T16:06:24.019Z,1004.43
2019-01-19T16:07:16.945Z,1004.41
2019-01-19T16:08:10.129Z,1004.42
2019-01-19T16:09:04.788Z,1004.38
2019-01-19T16:09:57.068Z,1004.38
2019-01-19T16:10:50.261Z,1004.35
2019-01-19T16:11:43.648Z,1004.36
2019-01-19T16:12:35.482Z,1004.32
2019-01-19T16:13:28.114Z,1004.34
2019-01-19T16:14:21.667Z,1004.32
2019-01-19T16:16:38.858Z,1004.29
2019-01-19T16:17:33.321Z,1004.22
2019-01-19T16:18:25.649Z,1004.27
2019-01-19T16:20:27.561Z,1004.28
2019-01-19T16:21:20.344Z,1004.24
2019-01-19T16:22:13.026Z,1004.24
2019-01-19T16:23:06.962Z,1004.22
2019-01-19T16:23:59.104Z,1004.27
2019-01-19T16:24:51.891Z,1004.23
2019-01-19T16:25:44.053Z,1004.23
2019-01-19T16:26:36.103Z,1004.2
2019-01-19T16:27:28.378Z,1004.23
2019-01-19T16:28:22.541Z,1004.26
2019-01-19T16:29:19.098Z,1004.22
2019-01-19T16:30:12.158Z,1004.26
2019-01-19T16:31:05.597Z,1004.24
2019-01-19T16:31:58.578Z,1004.24
2019-01-19T16:32:50.433Z,1004.26
2019-01-19T17:21:27.234Z,1004.12
2019-01-19T17:22:16.060Z,1004.11
2019-01-19T17:23:09.453Z,1004.13
2019-01-19T17:23:59.447Z,1004.1
2019-01-19T17:24:48.545Z,1004.06
2019-01-19T19:55:31.919Z,1004.09
2019-01-19T20:05:58.705Z,1004.17
2019-01-19T20:13:01.680Z,1004.23
2019-01-19T20:13:50.837Z,1004.22
2019-01-19T20:28:54.902Z,1004.29
2019-01-19T20:41:06.253Z,1004.16
2019-01-19T20:56:01.640Z,1004.19
2019-01-19T20:56:50.572Z,1004.12
2019-01-19T20:57:40.794Z,1004.13
2019-01-19T21:06:09.424Z,1004.23
2019-01-19T21:08:13.752Z,1004.25
2019-01-19T21:09:03.235Z,1004.25
2019-01-19T21:10:00.625Z,1004.08
2019-01-19T21:18:19.481Z,1004.23
2019-01-19T21:19:08.215Z,1004.23
2019-01-19T21:19:57.038Z,1004.23
2019-01-19T21:20:45.237Z,1004.25
2019-01-19T21:21:33.901Z,1004.27
2019-01-19T21:22:22.724Z,1004.26
2019-01-19T21:23:11.518Z,1004.29
2019-01-19T21:23:59.889Z,1004.29
2019-01-19T21:24:48.346Z,1004.35
2019-01-19T21:25:37.248Z,1004.29
2019-01-19T21:26:25.265Z,1004.34
2019-01-19T21:27:14.186Z,1004.36
2019-01-19T21:28:03.041Z,1004.34
2019-01-19T21:28:51.298Z,1004.37
2019-01-19T21:29:39.907Z,1004.39
2019-01-19T21:30:28.251Z,1004.36
2019-01-19T21:31:17.973Z,1004.35
2019-01-19T21:35:34.023Z,1004.34
2019-01-19T21:36:22.652Z,1004.34
2019-01-19T21:37:10.602Z,1004.33
2019-01-19T21:49:56.471Z,1004.31
2019-01-19T21:50:45.059Z,1004.31
2019-01-19T21:51:33.769Z,1004.27
2019-01-19T21:52:31.353Z,1004.23
2019-01-19T22:01:21.419Z,1004.35
2019-01-19T22:02:10.458Z,1004.35
2019-01-19T22:02:58.911Z,1004.36
2019-01-19T22:03:47.454Z,1004.35
2019-01-19T22:04:40.424Z,1004.34
2019-01-19T22:05:29.214Z,1004.33
2019-01-19T22:06:19.291Z,1004.34
2019-01-19T22:09:11.295Z,1004.37
2019-01-19T22:10:00.044Z,1004.35
2019-01-19T22:10:48.506Z,1004.35
2019-01-19T22:15:18.313Z,1004.38
2019-01-19T22:19:29.654Z,1004.41
2019-01-19T22:20:17.812Z,1004.39
2019-01-19T22:21:06.346Z,1004.4
2019-01-19T22:21:55.132Z,1004.37
2019-01-19T22:23:59.964Z,1004.36
2019-01-19T23:21:14.035Z,1004.3
2019-01-19T23:22:03.041Z,1004.31
2019-01-19T23:25:04.463Z,1004.34
2019-01-19T23:25:57.413Z,1004.29
2019-01-19T23:26:45.743Z,1004.36
2019-01-19T23:27:34.681Z,1004.36
2019-01-19T23:28:27.146Z,1004.38
2019-01-19T23:29:15.304Z,1004.37
2019-01-19T23:30:03.860Z,1004.33
2019-01-19T23:30:52.408Z,1004.29
2019-01-19T23:31:40.817Z,1004.3
2019-01-19T23:32:29.424Z,1004.34
2019-01-19T23:33:18.131Z,1004.33
2019-01-19T23:34:06.683Z,1004.35
2019-01-19T23:34:55.553Z,1004.32
2019-01-19T23:35:43.890Z,1004.3
2019-01-19T23:36:32.688Z,1004.33
2019-01-19T23:37:20.960Z,1004.3
2019-01-19T23:38:09.629Z,1004.28
2019-01-19T23:39:58.219Z,1004.31
2019-01-19T23:40:46.873Z,1004.32
2019-01-19T23:41:35.359Z,1004.32
2019-01-19T23:42:23.688Z,1004.34
2019-01-19T23:46:06.643Z,1004.27
2019-01-19T23:46:54.672Z,1004.33
2019-01-19T23:47:43.917Z,1004.29
2019-01-19T23:48:31.814Z,1004.28
2019-01-19T23:52:15.371Z,1004.27
2019-01-19T23:53:03.973Z,1004.25
2019-01-19T23:53:52.878Z,1004.28
2019-01-19T23:54:41.275Z,1004.2
2019-01-19T23:55:29.812Z,1004.32
2019-01-19T23:57:52.854Z,1004.3
2019-01-19T23:58:41.616Z,1004.3
2019-01-19T23:59:42.080Z,1004.27
